createdAt,value
2023-07-04T00:00:19.334Z,0.00
2023-07-04T00:00:39.565Z,0.00
2023-07-04T00:01:07.158Z,0.00
2023-07-04T00:01:37.974Z,0.00
2023-07-04T00:02:10.217Z,0.00
2023-07-04T00:02:36.643Z,0.00
2023-07-04T00:02:58.213Z,0.00
2023-07-04T00:03:30.096Z,0.00
2023-07-04T00:03:46.389Z,0.00
2023-07-04T00:04:17.939Z,0.00
2023-07-04T00:04:39.741Z,0.00
2023-07-04T00:05:07.820Z,0.00
2023-07-04T00:05:38.213Z,0.00
2023-07-04T00:06:10.329Z,0.00
2023-07-04T00:06:36.487Z,0.00
2023-07-04T00:06:57.771Z,0.00
2023-07-04T00:07:30.156Z,0.00
2023-07-04T00:07:46.926Z,0.00
2023-07-04T00:08:17.797Z,0.00
2023-07-04T00:08:39.601Z,0.00
2023-07-04T00:09:06.564Z,0.00
2023-07-04T00:09:37.837Z,0.00
2023-07-04T00:10:10.810Z,0.00
2023-07-04T00:10:36.483Z,0.00
2023-07-04T00:10:58.535Z,0.00
2023-07-04T00:11:30.048Z,0.00
2023-07-04T00:11:46.350Z,0.00
2023-07-04T00:12:17.966Z,0.00
2023-07-04T00:12:41.526Z,0.00
2023-07-04T00:13:06.562Z,0.00
2023-07-04T00:13:38.992Z,0.00
2023-07-04T00:14:10.147Z,0.00
2023-07-04T00:14:36.482Z,0.00
2023-07-04T00:14:57.891Z,0.00
2023-07-04T00:15:32.708Z,0.00
2023-07-04T00:15:46.564Z,0.00
2023-07-04T00:16:18.035Z,0.00
2023-07-04T00:16:39.578Z,0.00
2023-07-04T00:17:06.522Z,0.00
2023-07-04T00:17:37.928Z,0.00
2023-07-04T00:18:10.116Z,0.00
2023-07-04T00:18:36.550Z,0.00
2023-07-04T00:18:57.897Z,0.00
2023-07-04T00:19:30.153Z,0.00
2023-07-04T00:19:46.433Z,0.00
2023-07-04T00:20:18.554Z,0.00
2023-07-04T00:20:39.502Z,0.00
2023-07-04T00:21:06.614Z,0.00
2023-07-04T00:21:37.970Z,0.00
2023-07-04T00:22:10.223Z,0.00
2023-07-04T00:22:36.551Z,0.00
2023-07-04T00:22:58.723Z,0.00
2023-07-04T00:23:29.911Z,0.00
2023-07-04T00:23:46.485Z,0.00
2023-07-04T00:24:18.001Z,0.00
2023-07-04T00:24:39.578Z,0.00
2023-07-04T00:25:08.024Z,0.00
2023-07-04T00:25:37.906Z,0.00
2023-07-04T00:26:10.198Z,0.00
2023-07-04T00:26:36.485Z,0.00
2023-07-04T00:26:58.334Z,0.00
2023-07-04T00:27:29.978Z,0.00
2023-07-04T00:27:46.358Z,0.00
2023-07-04T00:28:17.846Z,0.00
2023-07-04T00:28:39.904Z,0.00
2023-07-04T00:29:06.578Z,0.00
2023-07-04T00:29:37.846Z,0.00
2023-07-04T00:30:11.315Z,0.00
2023-07-04T00:30:36.562Z,0.00
2023-07-04T00:30:58.562Z,0.00
2023-07-04T00:31:30.025Z,0.00
2023-07-04T00:31:46.773Z,0.00
2023-07-04T00:32:17.897Z,0.00
2023-07-04T00:32:39.580Z,0.00
2023-07-04T00:33:06.724Z,0.00
2023-07-04T00:33:37.848Z,0.00
2023-07-04T00:34:10.045Z,0.00
2023-07-04T00:34:36.519Z,0.00
2023-07-04T00:34:57.878Z,0.00
2023-07-04T00:35:30.422Z,0.00
2023-07-04T00:35:46.536Z,0.00
2023-07-04T00:36:18.696Z,0.00
2023-07-04T00:36:40.450Z,0.00
2023-07-04T00:37:08.407Z,0.00
2023-07-04T00:37:38.017Z,0.00
2023-07-04T00:38:10.204Z,0.00
2023-07-04T00:38:36.486Z,0.00
2023-07-04T00:38:58.818Z,0.00
2023-07-04T00:39:30.057Z,0.00
2023-07-04T00:39:46.573Z,0.00
2023-07-04T00:40:18.513Z,0.00
2023-07-04T00:40:39.591Z,0.00
2023-07-04T00:41:06.666Z,0.00
2023-07-04T00:41:37.955Z,0.00
2023-07-04T00:42:10.820Z,0.00
2023-07-04T00:42:36.549Z,0.00
2023-07-04T00:42:57.942Z,0.00
2023-07-04T00:43:29.894Z,0.00
2023-07-04T00:43:46.550Z,0.00
2023-07-04T00:44:17.834Z,0.00
2023-07-04T00:44:39.523Z,0.00
2023-07-04T00:45:08.832Z,0.00
2023-07-04T00:45:38.011Z,0.00
2023-07-04T00:46:10.142Z,0.00
2023-07-04T00:46:36.584Z,0.00
2023-07-04T00:46:58.122Z,0.00
2023-07-04T00:47:29.987Z,0.00
2023-07-04T00:47:46.694Z,0.00
2023-07-04T00:48:17.832Z,0.00
2023-07-04T00:48:39.611Z,0.00
2023-07-04T00:49:06.545Z,0.00
2023-07-04T00:49:38.003Z,0.00
2023-07-04T00:50:10.611Z,0.00
2023-07-04T00:50:36.562Z,0.00
2023-07-04T00:50:58.480Z,0.00
2023-07-04T00:51:29.873Z,0.00
2023-07-04T00:51:46.297Z,0.00
2023-07-04T00:52:17.854Z,0.00
2023-07-04T00:52:39.532Z,0.00
2023-07-04T00:53:06.633Z,0.00
2023-07-04T00:53:37.867Z,0.00
2023-07-04T00:54:09.982Z,0.00
2023-07-04T00:54:36.549Z,0.00
2023-07-04T00:54:57.967Z,0.00
2023-07-04T00:55:30.558Z,0.00
2023-07-04T00:55:46.566Z,0.00
2023-07-04T00:56:18.360Z,0.00
2023-07-04T00:56:39.565Z,0.00
2023-07-04T00:57:06.948Z,0.00
2023-07-04T00:57:37.872Z,0.00
2023-07-04T00:58:10.299Z,0.00
2023-07-04T00:58:36.486Z,0.00
2023-07-04T00:58:57.934Z,0.00
2023-07-04T00:59:30.025Z,0.00
2023-07-04T00:59:46.459Z,0.00
2023-07-04T01:00:19.487Z,0.00
2023-07-04T01:00:39.558Z,0.00
2023-07-04T01:01:07.274Z,0.00
2023-07-04T01:01:37.953Z,0.00
2023-07-04T01:02:10.184Z,0.00
2023-07-04T01:02:57.886Z,0.00
2023-07-04T01:03:29.993Z,0.00
2023-07-04T01:03:46.423Z,0.00
2023-07-04T01:04:17.996Z,0.00
2023-07-04T01:04:39.540Z,0.00
2023-07-04T01:05:07.799Z,0.00
2023-07-04T01:05:37.878Z,0.00
2023-07-04T01:06:09.954Z,0.00
2023-07-04T01:06:36.578Z,0.00
2023-07-04T01:06:58.034Z,0.00
2023-07-04T01:07:29.911Z,0.00
2023-07-04T01:07:46.409Z,0.00
2023-07-04T01:08:17.970Z,0.00
2023-07-04T01:08:39.593Z,0.00
2023-07-04T01:09:06.617Z,0.00
2023-07-04T01:09:37.881Z,0.00
2023-07-04T01:10:10.645Z,0.00
2023-07-04T01:10:37.088Z,0.00
2023-07-04T01:10:58.486Z,0.00
2023-07-04T01:11:29.866Z,0.00
2023-07-04T01:11:46.293Z,0.00
2023-07-04T01:12:17.891Z,0.00
2023-07-04T01:12:39.581Z,0.00
2023-07-04T01:13:06.565Z,0.00
2023-07-04T01:13:37.903Z,0.00
2023-07-04T01:14:10.011Z,0.00
2023-07-04T01:14:36.645Z,0.00
2023-07-04T01:14:57.841Z,0.00
2023-07-04T01:15:31.283Z,0.00
2023-07-04T01:15:47.426Z,0.00
2023-07-04T01:16:18.085Z,0.00
2023-07-04T01:16:39.699Z,0.00
2023-07-04T01:17:06.663Z,0.00
2023-07-04T01:17:38.025Z,0.00
2023-07-04T01:18:09.958Z,0.00
2023-07-04T01:18:36.534Z,0.00
2023-07-04T01:18:58.404Z,0.00
2023-07-04T01:19:30.311Z,0.00
2023-07-04T01:19:46.302Z,0.00
2023-07-04T01:20:18.464Z,0.00
2023-07-04T01:20:39.522Z,0.00
2023-07-04T01:21:06.577Z,0.00
2023-07-04T01:21:37.812Z,0.00
2023-07-04T01:22:10.110Z,0.00
2023-07-04T01:22:36.668Z,0.00
2023-07-04T01:22:57.951Z,0.00
2023-07-04T01:23:30.395Z,0.00
2023-07-04T01:23:46.403Z,0.00
2023-07-04T01:24:17.816Z,0.00
2023-07-04T01:24:39.634Z,0.00
2023-07-04T01:25:07.817Z,0.00
2023-07-04T01:25:37.804Z,0.00
2023-07-04T01:26:09.959Z,0.00
2023-07-04T01:26:36.765Z,0.00
2023-07-04T01:26:57.886Z,0.00
2023-07-04T01:27:30.056Z,0.00
2023-07-04T01:27:46.517Z,0.00
2023-07-04T01:28:17.908Z,0.00
2023-07-04T01:28:39.672Z,0.00
2023-07-04T01:29:06.491Z,0.00
2023-07-04T01:29:37.865Z,0.00
2023-07-04T01:30:13.817Z,0.00
2023-07-04T01:30:36.585Z,0.00
2023-07-04T01:30:58.595Z,0.00
2023-07-04T01:31:29.970Z,0.00
2023-07-04T01:31:46.568Z,0.00
2023-07-04T01:32:17.838Z,0.00
2023-07-04T01:32:39.926Z,0.00
2023-07-04T01:33:06.653Z,0.00
2023-07-04T01:33:37.922Z,0.00
2023-07-04T01:34:10.056Z,0.00
2023-07-04T01:34:36.972Z,0.00
2023-07-04T01:34:57.991Z,0.00
2023-07-04T01:35:30.507Z,0.00
2023-07-04T01:35:46.568Z,0.00
2023-07-04T01:36:17.916Z,0.00
2023-07-04T01:36:39.711Z,0.00
2023-07-04T01:37:06.653Z,0.00
2023-07-04T01:37:38.400Z,0.00
2023-07-04T01:38:10.020Z,0.00
2023-07-04T01:38:37.159Z,0.00
2023-07-04T01:38:57.973Z,0.00
2023-07-04T01:39:29.948Z,0.00
2023-07-04T01:39:47.298Z,0.00
2023-07-04T01:40:18.561Z,0.00
2023-07-04T01:40:39.722Z,0.00
2023-07-04T01:41:06.600Z,0.00
2023-07-04T01:41:38.178Z,0.00
2023-07-04T01:42:10.077Z,0.00
2023-07-04T01:42:36.568Z,0.00
2023-07-04T01:42:57.940Z,0.00
2023-07-04T01:43:29.986Z,0.00
2023-07-04T01:43:46.347Z,0.00
2023-07-04T01:44:17.909Z,0.00
2023-07-04T01:44:40.055Z,0.00
2023-07-04T01:45:08.472Z,0.00
2023-07-04T01:45:37.930Z,0.00
2023-07-04T01:46:10.021Z,0.00
2023-07-04T01:46:36.667Z,0.00
2023-07-04T01:46:57.897Z,0.00
2023-07-04T01:47:29.987Z,0.00
2023-07-04T01:47:46.367Z,0.00
2023-07-04T01:48:17.845Z,0.00
2023-07-04T01:48:39.546Z,0.00
2023-07-04T01:49:06.579Z,0.00
2023-07-04T01:49:37.799Z,0.00
2023-07-04T01:50:10.939Z,0.00
2023-07-04T01:50:36.934Z,0.00
2023-07-04T01:50:58.389Z,0.00
2023-07-04T01:51:29.969Z,0.00
2023-07-04T01:51:46.535Z,0.00
2023-07-04T01:52:17.956Z,0.00
2023-07-04T01:52:39.650Z,0.00
2023-07-04T01:53:06.637Z,0.00
2023-07-04T01:53:37.949Z,0.00
2023-07-04T01:54:10.132Z,0.00
2023-07-04T01:54:26.495Z,0.00
2023-07-04T01:54:57.895Z,0.00
2023-07-04T01:55:30.527Z,0.00
2023-07-04T01:55:46.778Z,0.00
2023-07-04T01:56:17.883Z,0.00
2023-07-04T01:56:39.629Z,0.00
2023-07-04T01:57:06.926Z,0.00
2023-07-04T01:57:37.820Z,0.00
2023-07-04T01:58:10.035Z,0.00
2023-07-04T01:58:37.145Z,0.00
2023-07-04T01:58:57.855Z,0.00
2023-07-04T01:59:30.122Z,0.00
2023-07-04T01:59:46.429Z,0.00
2023-07-04T02:00:19.169Z,0.00
2023-07-04T02:00:39.719Z,0.00
2023-07-04T02:01:07.242Z,0.00
2023-07-04T02:01:38.025Z,0.00
2023-07-04T02:02:10.164Z,0.00
2023-07-04T02:02:37.092Z,0.00
2023-07-04T02:02:58.192Z,0.00
2023-07-04T02:03:29.922Z,0.00
2023-07-04T02:03:46.757Z,0.00
2023-07-04T02:04:17.857Z,0.00
2023-07-04T02:04:39.696Z,0.00
2023-07-04T02:05:07.977Z,0.00
2023-07-04T02:05:37.921Z,0.00
2023-07-04T02:06:10.044Z,0.00
2023-07-04T02:06:36.660Z,0.00
2023-07-04T02:06:57.928Z,0.00
2023-07-04T02:07:30.024Z,0.00
2023-07-04T02:07:46.424Z,0.00
2023-07-04T02:08:17.958Z,0.00
2023-07-04T02:08:39.766Z,0.00
2023-07-04T02:09:06.526Z,0.00
2023-07-04T02:09:37.862Z,0.00
2023-07-04T02:10:10.759Z,0.00
2023-07-04T02:10:36.513Z,0.00
2023-07-04T02:10:58.666Z,0.00
2023-07-04T02:11:30.020Z,0.00
2023-07-04T02:11:46.352Z,0.00
2023-07-04T02:12:17.829Z,0.00
2023-07-04T02:12:39.876Z,0.00
2023-07-04T02:13:06.616Z,0.00
2023-07-04T02:13:37.958Z,0.00
2023-07-04T02:14:10.010Z,0.00
2023-07-04T02:14:36.625Z,0.00
2023-07-04T02:14:57.983Z,0.00
2023-07-04T02:15:31.109Z,0.00
2023-07-04T02:15:46.761Z,0.00
2023-07-04T02:16:17.866Z,0.00
2023-07-04T02:16:41.150Z,0.00
2023-07-04T02:17:06.697Z,0.00
2023-07-04T02:17:37.950Z,0.00
2023-07-04T02:18:10.005Z,0.00
2023-07-04T02:18:36.547Z,0.00
2023-07-04T02:18:58.935Z,0.00
2023-07-04T02:19:30.038Z,0.00
2023-07-04T02:19:47.042Z,0.00
2023-07-04T02:20:18.469Z,0.00
2023-07-04T02:20:39.592Z,0.00
2023-07-04T02:21:06.653Z,0.00
2023-07-04T02:21:37.927Z,0.00
2023-07-04T02:22:10.057Z,0.00
2023-07-04T02:22:36.525Z,0.00
2023-07-04T02:22:58.331Z,0.00
2023-07-04T02:23:29.825Z,0.00
2023-07-04T02:23:46.340Z,0.00
2023-07-04T02:24:17.859Z,0.00
2023-07-04T02:24:39.712Z,0.00
2023-07-04T02:25:07.999Z,0.00
2023-07-04T02:25:38.090Z,0.00
2023-07-04T02:26:10.082Z,0.00
2023-07-04T02:26:36.671Z,0.00
2023-07-04T02:26:58.219Z,0.00
2023-07-04T02:27:29.914Z,0.00
2023-07-04T02:27:46.363Z,0.00
2023-07-04T02:28:17.847Z,0.00
2023-07-04T02:28:39.691Z,0.00
2023-07-04T02:29:06.558Z,0.00
2023-07-04T02:29:37.855Z,0.00
2023-07-04T02:30:11.244Z,0.00
2023-07-04T02:30:36.604Z,0.00
2023-07-04T02:30:58.650Z,0.00
2023-07-04T02:31:30.048Z,0.00
2023-07-04T02:31:46.771Z,0.00
2023-07-04T02:32:17.961Z,0.00
2023-07-04T02:32:39.759Z,0.00
2023-07-04T02:33:06.658Z,0.00
2023-07-04T02:33:37.874Z,0.00
2023-07-04T02:34:10.038Z,0.00
2023-07-04T02:34:36.562Z,0.00
2023-07-04T02:34:57.900Z,0.00
2023-07-04T02:35:30.483Z,0.00
2023-07-04T02:35:46.384Z,0.00
2023-07-04T02:36:17.947Z,0.00
2023-07-04T02:36:39.649Z,0.00
2023-07-04T02:37:06.559Z,0.00
2023-07-04T02:37:37.984Z,0.00
2023-07-04T02:38:10.403Z,0.00
2023-07-04T02:38:36.600Z,0.00
2023-07-04T02:38:57.839Z,0.00
2023-07-04T02:39:29.925Z,0.00
2023-07-04T02:39:46.442Z,0.00
2023-07-04T02:40:18.398Z,0.00
2023-07-04T02:40:39.645Z,0.00
2023-07-04T02:41:07.397Z,0.00
2023-07-04T02:41:37.914Z,0.00
2023-07-04T02:42:10.437Z,0.00
2023-07-04T02:42:36.643Z,0.00
2023-07-04T02:42:57.969Z,0.00
2023-07-04T02:43:29.964Z,0.00
2023-07-04T02:43:46.489Z,0.00
2023-07-04T02:44:17.921Z,0.00
2023-07-04T02:44:39.653Z,0.00
2023-07-04T02:45:08.900Z,0.00
2023-07-04T02:45:37.971Z,0.00
2023-07-04T02:46:10.270Z,0.00
2023-07-04T02:46:36.663Z,0.00
2023-07-04T02:46:57.914Z,0.00
2023-07-04T02:47:29.940Z,0.00
2023-07-04T02:47:46.607Z,0.00
2023-07-04T02:48:17.932Z,0.00
2023-07-04T02:48:39.701Z,0.00
2023-07-04T02:49:06.638Z,0.00
2023-07-04T02:49:38.029Z,0.00
2023-07-04T02:50:11.301Z,0.00
2023-07-04T02:50:36.532Z,0.00
2023-07-04T02:50:58.425Z,0.00
2023-07-04T02:51:29.885Z,0.00
2023-07-04T02:51:46.361Z,0.00
2023-07-04T02:52:17.859Z,0.00
2023-07-04T02:52:39.986Z,0.00
2023-07-04T02:53:06.513Z,0.00
2023-07-04T02:53:37.899Z,0.00
2023-07-04T02:54:10.102Z,0.00
2023-07-04T02:54:36.572Z,0.00
2023-07-04T02:54:57.982Z,0.00
2023-07-04T02:55:30.544Z,0.00
2023-07-04T02:55:46.277Z,0.00
2023-07-04T02:56:17.922Z,0.00
2023-07-04T02:56:39.666Z,0.00
2023-07-04T02:57:06.698Z,0.00
2023-07-04T02:57:37.793Z,0.00
2023-07-04T02:58:09.963Z,0.00
2023-07-04T02:58:26.501Z,0.00
2023-07-04T02:58:57.875Z,0.00
2023-07-04T02:59:30.043Z,0.00
2023-07-04T02:59:46.390Z,0.36
2023-07-04T03:00:19.291Z,0.85
2023-07-04T03:00:39.779Z,0.00
2023-07-04T03:01:07.759Z,0.36
2023-07-04T03:01:38.254Z,0.85
2023-07-04T03:02:10.528Z,1.22
2023-07-04T03:02:26.983Z,0.85
2023-07-04T03:02:58.633Z,1.22
2023-07-04T03:03:30.222Z,1.71
2023-07-04T03:03:46.789Z,0.85
2023-07-04T03:04:18.265Z,1.22
2023-07-04T03:04:39.843Z,1.22
2023-07-04T03:05:22.785Z,1.71
2023-07-04T03:05:43.686Z,1.22
2023-07-04T03:06:10.117Z,2.08
2023-07-04T03:06:26.861Z,2.08
2023-07-04T03:06:58.180Z,2.08
2023-07-04T03:07:30.152Z,2.57
2023-07-04T03:07:46.505Z,2.08
2023-07-04T03:08:18.620Z,2.57
2023-07-04T03:08:39.793Z,2.57
2023-07-04T03:09:06.852Z,2.94
2023-07-04T03:09:38.071Z,3.43
2023-07-04T03:10:10.990Z,2.94
2023-07-04T03:10:26.757Z,2.94
2023-07-04T03:10:58.805Z,3.43
2023-07-04T03:11:30.543Z,3.79
2023-07-04T03:11:46.798Z,3.43
2023-07-04T03:12:18.007Z,3.43
2023-07-04T03:12:39.762Z,4.28
2023-07-04T03:13:07.043Z,4.28
2023-07-04T03:13:38.072Z,4.77
2023-07-04T03:14:10.079Z,4.28
2023-07-04T03:14:26.773Z,4.77
2023-07-04T03:14:58.207Z,5.14
2023-07-04T03:15:31.387Z,5.14
2023-07-04T03:15:46.628Z,5.14
2023-07-04T03:16:18.076Z,5.63
2023-07-04T03:16:39.843Z,6.48
2023-07-04T03:17:06.814Z,5.99
2023-07-04T03:17:38.328Z,6.48
2023-07-04T03:18:10.571Z,6.85
2023-07-04T03:18:26.881Z,6.48
2023-07-04T03:18:58.114Z,6.85
2023-07-04T03:19:30.128Z,6.85
2023-07-04T03:19:46.562Z,7.70
2023-07-04T03:20:18.698Z,8.19
2023-07-04T03:20:39.776Z,7.70
2023-07-04T03:21:06.740Z,8.56
2023-07-04T03:21:37.981Z,8.56
2023-07-04T03:22:10.210Z,8.56
2023-07-04T03:22:27.019Z,9.05
2023-07-04T03:22:58.100Z,9.05
2023-07-04T03:23:30.339Z,9.91
2023-07-04T03:23:46.876Z,9.05
2023-07-04T03:24:17.953Z,9.91
2023-07-04T03:24:39.848Z,9.91
2023-07-04T03:25:08.106Z,10.39
2023-07-04T03:25:37.916Z,10.77
2023-07-04T03:26:10.108Z,10.39
2023-07-04T03:26:27.260Z,11.25
2023-07-04T03:26:58.305Z,11.62
2023-07-04T03:27:30.396Z,12.11
2023-07-04T03:27:46.677Z,12.11
2023-07-04T03:28:18.304Z,12.11
2023-07-04T03:28:39.773Z,12.97
2023-07-04T03:29:06.857Z,12.97
2023-07-04T03:29:38.175Z,12.97
2023-07-04T03:30:11.318Z,13.33
2023-07-04T03:30:27.308Z,12.97
2023-07-04T03:30:58.680Z,14.31
2023-07-04T03:31:30.390Z,14.31
2023-07-04T03:31:46.585Z,14.31
2023-07-04T03:32:18.177Z,15.17
2023-07-04T03:32:40.040Z,14.68
2023-07-04T03:33:06.896Z,16.02
2023-07-04T03:33:38.116Z,16.39
2023-07-04T03:34:10.495Z,16.02
2023-07-04T03:34:36.842Z,16.39
2023-07-04T03:34:58.222Z,16.39
2023-07-04T03:35:36.477Z,16.88
2023-07-04T03:35:58.089Z,17.25
2023-07-04T03:36:18.038Z,18.11
2023-07-04T03:36:39.850Z,18.11
2023-07-04T03:37:06.959Z,18.60
2023-07-04T03:37:38.094Z,18.60
2023-07-04T03:38:10.235Z,19.45
2023-07-04T03:38:26.829Z,19.45
2023-07-04T03:38:58.157Z,19.94
2023-07-04T03:39:30.182Z,20.31
2023-07-04T03:39:46.675Z,19.94
2023-07-04T03:40:18.804Z,20.31
2023-07-04T03:40:39.809Z,20.80
2023-07-04T03:41:07.140Z,21.16
2023-07-04T03:41:38.139Z,22.02
2023-07-04T03:42:10.244Z,22.02
2023-07-04T03:42:26.817Z,22.87
2023-07-04T03:42:58.205Z,22.51
2023-07-04T03:43:30.145Z,23.36
2023-07-04T03:43:46.597Z,23.36
2023-07-04T03:44:18.077Z,23.85
2023-07-04T03:44:39.918Z,24.22
2023-07-04T03:45:08.610Z,25.07
2023-07-04T03:45:38.188Z,24.22
2023-07-04T03:46:10.230Z,25.94
2023-07-04T03:46:27.187Z,25.07
2023-07-04T03:46:58.226Z,26.42
2023-07-04T03:47:30.219Z,26.79
2023-07-04T03:47:46.639Z,26.42
2023-07-04T03:48:18.139Z,26.79
2023-07-04T03:48:40.032Z,27.65
2023-07-04T03:49:06.848Z,28.14
2023-07-04T03:49:38.441Z,28.14
2023-07-04T03:50:10.932Z,28.63
2023-07-04T03:50:26.845Z,28.14
2023-07-04T03:50:58.914Z,29.85
2023-07-04T03:51:30.043Z,29.85
2023-07-04T03:51:47.699Z,30.70
2023-07-04T03:52:18.056Z,30.34
2023-07-04T03:52:40.247Z,31.19
2023-07-04T03:53:07.112Z,30.70
2023-07-04T03:53:38.073Z,31.56
2023-07-04T03:54:10.158Z,32.42
2023-07-04T03:54:26.803Z,32.90
2023-07-04T03:54:58.485Z,33.39
2023-07-04T03:55:30.747Z,33.76
2023-07-04T03:55:46.572Z,33.76
2023-07-04T03:56:18.187Z,34.25
2023-07-04T03:56:40.360Z,34.25
2023-07-04T03:57:07.051Z,35.11
2023-07-04T03:57:38.050Z,36.82
2023-07-04T03:58:10.249Z,36.33
2023-07-04T03:58:26.900Z,36.82
2023-07-04T03:58:58.211Z,37.19
2023-07-04T03:59:30.046Z,37.68
2023-07-04T03:59:46.590Z,38.17
2023-07-04T04:00:19.334Z,38.53
2023-07-04T04:00:40.048Z,39.02
2023-07-04T04:01:07.679Z,39.39
2023-07-04T04:01:38.245Z,39.39
2023-07-04T04:02:10.464Z,40.24
2023-07-04T04:02:26.815Z,40.24
2023-07-04T04:02:58.418Z,41.10
2023-07-04T04:03:30.422Z,41.96
2023-07-04T04:03:46.972Z,41.96
2023-07-04T04:04:18.138Z,42.45
2023-07-04T04:04:40.545Z,43.31
2023-07-04T04:05:08.430Z,43.31
2023-07-04T04:05:37.931Z,44.65
2023-07-04T04:06:10.124Z,45.87
2023-07-04T04:06:26.869Z,45.51
2023-07-04T04:06:58.249Z,45.87
2023-07-04T04:07:30.183Z,46.36
2023-07-04T04:07:46.954Z,46.73
2023-07-04T04:08:18.332Z,46.73
2023-07-04T04:08:39.873Z,47.71
2023-07-04T04:09:06.873Z,47.71
2023-07-04T04:09:38.059Z,48.56
2023-07-04T04:10:10.873Z,49.79
2023-07-04T04:10:26.948Z,49.42
2023-07-04T04:10:58.927Z,50.28
2023-07-04T04:11:30.170Z,51.14
2023-07-04T04:11:46.924Z,51.50
2023-07-04T04:12:18.212Z,51.99
2023-07-04T04:12:40.060Z,52.85
2023-07-04T04:13:06.816Z,53.34
2023-07-04T04:13:38.019Z,53.70
2023-07-04T04:14:10.099Z,54.19
2023-07-04T04:14:26.804Z,53.70
2023-07-04T04:14:58.243Z,55.05
2023-07-04T04:15:31.183Z,55.41
2023-07-04T04:15:47.457Z,56.76
2023-07-04T04:16:18.089Z,56.76
2023-07-04T04:16:39.897Z,57.25
2023-07-04T04:17:06.937Z,57.62
2023-07-04T04:17:37.951Z,58.97
2023-07-04T04:18:11.459Z,59.82
2023-07-04T04:18:27.074Z,59.82
2023-07-04T04:18:58.191Z,60.68
2023-07-04T04:19:30.074Z,61.17
2023-07-04T04:19:47.104Z,61.53
2023-07-04T04:20:19.026Z,62.88
2023-07-04T04:20:40.112Z,62.88
2023-07-04T04:21:07.234Z,64.59
2023-07-04T04:21:38.015Z,64.59
2023-07-04T04:22:10.107Z,65.94
2023-07-04T04:22:26.700Z,65.45
2023-07-04T04:22:58.237Z,66.31
2023-07-04T04:23:30.137Z,67.16
2023-07-04T04:23:46.644Z,67.65
2023-07-04T04:24:18.188Z,68.02
2023-07-04T04:24:40.036Z,69.36
2023-07-04T04:25:08.196Z,69.73
2023-07-04T04:25:38.511Z,70.71
2023-07-04T04:26:10.452Z,72.42
2023-07-04T04:26:36.957Z,72.79
2023-07-04T04:26:58.261Z,73.28
2023-07-04T04:27:30.128Z,73.65
2023-07-04T04:27:46.671Z,74.99
2023-07-04T04:28:18.104Z,75.85
2023-07-04T04:28:40.288Z,75.85
2023-07-04T04:29:06.998Z,76.70
2023-07-04T04:29:38.091Z,77.19
2023-07-04T04:30:11.461Z,78.05
2023-07-04T04:30:27.327Z,78.41
2023-07-04T04:30:58.844Z,80.25
2023-07-04T04:31:30.174Z,78.90
2023-07-04T04:31:46.628Z,80.62
2023-07-04T04:32:18.183Z,81.97
2023-07-04T04:32:39.994Z,82.33
2023-07-04T04:33:06.874Z,83.68
2023-07-04T04:33:37.948Z,83.68
2023-07-04T04:34:10.175Z,85.02
2023-07-04T04:34:27.084Z,85.39
2023-07-04T04:34:58.722Z,86.24
2023-07-04T04:35:30.830Z,85.88
2023-07-04T04:35:46.746Z,87.59
2023-07-04T04:36:18.036Z,87.96
2023-07-04T04:36:40.084Z,87.96
2023-07-04T04:37:07.066Z,89.31
2023-07-04T04:37:38.004Z,89.31
2023-07-04T04:38:10.167Z,89.79
2023-07-04T04:38:27.039Z,90.16
2023-07-04T04:38:58.421Z,91.51
2023-07-04T04:39:30.105Z,93.22
2023-07-04T04:39:46.697Z,92.73
2023-07-04T04:40:18.715Z,93.58
2023-07-04T04:40:39.871Z,93.58
2023-07-04T04:41:07.208Z,95.42
2023-07-04T04:41:38.115Z,96.27
2023-07-04T04:42:10.359Z,96.65
2023-07-04T04:42:27.159Z,98.36
2023-07-04T04:42:58.265Z,97.99
2023-07-04T04:43:30.335Z,100.19
2023-07-04T04:43:46.850Z,99.70
2023-07-04T04:44:18.088Z,101.41
2023-07-04T04:44:39.940Z,101.41
2023-07-04T04:45:09.121Z,102.76
2023-07-04T04:45:38.126Z,103.13
2023-07-04T04:46:10.213Z,105.33
2023-07-04T04:46:27.476Z,105.82
2023-07-04T04:46:58.781Z,107.90
2023-07-04T04:47:30.211Z,109.24
2023-07-04T04:47:46.643Z,110.59
2023-07-04T04:48:18.037Z,112.30
2023-07-04T04:48:40.029Z,113.16
2023-07-04T04:49:07.552Z,114.51
2023-07-04T04:49:38.015Z,115.73
2023-07-04T04:50:11.011Z,117.93
2023-07-04T04:50:27.565Z,117.93
2023-07-04T04:50:59.010Z,119.64
2023-07-04T04:51:30.266Z,119.64
2023-07-04T04:51:46.944Z,120.13
2023-07-04T04:52:18.392Z,120.50
2023-07-04T04:52:40.051Z,120.99
2023-07-04T04:53:07.968Z,122.70
2023-07-04T04:53:38.367Z,123.19
2023-07-04T04:54:11.142Z,124.90
2023-07-04T04:54:27.084Z,126.61
2023-07-04T04:54:58.423Z,126.61
2023-07-04T04:55:31.018Z,130.04
2023-07-04T04:55:46.766Z,130.04
2023-07-04T04:56:18.367Z,131.39
2023-07-04T04:56:40.015Z,130.53
2023-07-04T04:57:07.342Z,131.88
2023-07-04T04:57:38.219Z,133.10
2023-07-04T04:58:10.932Z,134.81
2023-07-04T04:58:27.020Z,134.44
2023-07-04T04:58:58.440Z,134.81
2023-07-04T04:59:30.533Z,135.30
2023-07-04T04:59:47.002Z,135.67
2023-07-04T05:00:19.462Z,136.65
2023-07-04T05:00:40.165Z,137.02
2023-07-04T05:01:07.909Z,139.22
2023-07-04T05:01:38.219Z,138.36
2023-07-04T05:02:10.690Z,140.07
2023-07-04T05:02:27.099Z,140.44
2023-07-04T05:02:58.413Z,142.27
2023-07-04T05:03:30.341Z,144.36
2023-07-04T05:03:46.797Z,144.85
2023-07-04T05:04:18.286Z,145.70
2023-07-04T05:04:40.087Z,146.56
2023-07-04T05:05:08.399Z,147.41
2023-07-04T05:05:38.151Z,147.90
2023-07-04T05:06:10.516Z,149.61
2023-07-04T05:06:27.028Z,149.61
2023-07-04T05:06:58.321Z,150.96
2023-07-04T05:07:30.321Z,150.47
2023-07-04T05:07:47.160Z,151.33
2023-07-04T05:08:18.259Z,152.19
2023-07-04T05:08:40.289Z,150.96
2023-07-04T05:09:07.343Z,152.68
2023-07-04T05:09:38.276Z,152.19
2023-07-04T05:10:11.649Z,152.68
2023-07-04T05:10:27.170Z,153.90
2023-07-04T05:10:58.927Z,155.24
2023-07-04T05:11:30.237Z,156.59
2023-07-04T05:11:46.762Z,157.44
2023-07-04T05:12:18.829Z,158.30
2023-07-04T05:12:39.972Z,159.16
2023-07-04T05:13:07.256Z,160.51
2023-07-04T05:13:38.239Z,161.73
2023-07-04T05:14:10.263Z,163.93
2023-07-04T05:14:27.047Z,164.78
2023-07-04T05:14:58.520Z,166.50
2023-07-04T05:15:31.260Z,168.70
2023-07-04T05:15:47.208Z,169.07
2023-07-04T05:16:18.658Z,170.05
2023-07-04T05:16:40.237Z,170.41
2023-07-04T05:17:07.614Z,171.76
2023-07-04T05:17:38.240Z,172.61
2023-07-04T05:18:10.633Z,174.33
2023-07-04T05:18:27.264Z,174.33
2023-07-04T05:18:58.480Z,174.33
2023-07-04T05:19:30.332Z,174.81
2023-07-04T05:19:46.853Z,174.81
2023-07-04T05:20:18.830Z,175.67
2023-07-04T05:20:40.008Z,175.19
2023-07-04T05:21:07.083Z,176.04
2023-07-04T05:21:38.248Z,176.90
2023-07-04T05:22:10.359Z,177.39
2023-07-04T05:22:26.999Z,177.75
2023-07-04T05:22:58.379Z,178.61
2023-07-04T05:23:30.342Z,180.81
2023-07-04T05:23:46.800Z,181.30
2023-07-04T05:24:18.251Z,183.50
2023-07-04T05:24:40.109Z,184.73
2023-07-04T05:25:23.746Z,189.49
2023-07-04T05:25:43.973Z,190.36
2023-07-04T05:26:10.572Z,193.41
2023-07-04T05:26:27.193Z,194.27
2023-07-04T05:26:58.362Z,196.84
2023-07-04T05:27:30.202Z,197.81
2023-07-04T05:27:46.808Z,198.67
2023-07-04T05:28:18.218Z,200.75
2023-07-04T05:28:40.086Z,201.61
2023-07-04T05:29:07.324Z,202.10
2023-07-04T05:29:38.216Z,202.59
2023-07-04T05:30:11.796Z,202.95
2023-07-04T05:30:27.240Z,202.95
2023-07-04T05:30:58.907Z,204.30
2023-07-04T05:31:30.313Z,204.66
2023-07-04T05:31:46.808Z,205.52
2023-07-04T05:32:18.258Z,206.87
2023-07-04T05:32:40.113Z,206.87
2023-07-04T05:33:07.659Z,208.22
2023-07-04T05:33:38.354Z,210.29
2023-07-04T05:34:10.548Z,212.13
2023-07-04T05:34:27.606Z,212.98
2023-07-04T05:34:58.402Z,212.98
2023-07-04T05:35:30.871Z,214.21
2023-07-04T05:35:46.765Z,215.07
2023-07-04T05:36:18.240Z,218.12
2023-07-04T05:36:40.146Z,218.98
2023-07-04T05:37:07.303Z,220.32
2023-07-04T05:37:38.216Z,221.67
2023-07-04T05:38:10.617Z,222.53
2023-07-04T05:38:27.142Z,223.39
2023-07-04T05:38:58.868Z,224.61
2023-07-04T05:39:30.754Z,227.66
2023-07-04T05:39:46.794Z,230.73
2023-07-04T05:40:18.833Z,230.73
2023-07-04T05:40:40.086Z,231.58
2023-07-04T05:41:07.408Z,232.44
2023-07-04T05:41:38.323Z,235.49
2023-07-04T05:42:10.459Z,235.98
2023-07-04T05:42:27.107Z,236.84
2023-07-04T05:42:58.434Z,238.56
2023-07-04T05:43:30.660Z,241.12
2023-07-04T05:43:47.265Z,242.47
2023-07-04T05:44:18.384Z,242.47
2023-07-04T05:44:40.191Z,242.47
2023-07-04T05:45:08.939Z,241.98
2023-07-04T05:45:39.700Z,243.32
2023-07-04T05:46:10.240Z,244.67
2023-07-04T05:46:27.120Z,244.18
2023-07-04T05:46:58.393Z,246.39
2023-07-04T05:47:30.703Z,247.61
2023-07-04T05:47:47.383Z,248.95
2023-07-04T05:48:18.205Z,250.66